sensor_id;sensor_type;location;lat;lon;timestamp;P1;durP1;ratioP1;P2;durP2;ratioP2
30173;SDS011;16985;50.814;8.530;2022-10-16T00:01:25;8.43;;;4.43;;
30173;SDS011;16985;50.814;8.530;2022-10-16T00:03:53;9.38;;;4.65;;
30173;SDS011;16985;50.814;8.530;2022-10-16T00:06:21;6.55;;;3.63;;
30173;SDS011;16985;50.814;8.530;2022-10-16T00:08:48;7.75;;;3.78;;
30173;SDS011;16985;50.814;8.530;2022-10-16T00:11:16;8.25;;;3.72;;
30173;SDS011;16985;50.814;8.530;2022-10-16T00:13:48;8.88;;;4.55;;
30173;SDS011;16985;50.814;8.530;2022-10-16T00:16:17;8.00;;;3.78;;
30173;SDS011;16985;50.814;8.530;2022-10-16T00:18:45;8.07;;;4.47;;
30173;SDS011;16985;50.814;8.530;2022-10-16T00:21:22;10.43;;;3.67;;
30173;SDS011;16985;50.814;8.530;2022-10-16T00:23:55;7.25;;;4.00;;
30173;SDS011;16985;50.814;8.530;2022-10-16T00:26:24;8.50;;;4.22;;
30173;SDS011;16985;50.814;8.530;2022-10-16T00:28:52;5.35;;;3.25;;
30173;SDS011;16985;50.814;8.530;2022-10-16T00:31:19;9.35;;;3.72;;
30173;SDS011;16985;50.814;8.530;2022-10-16T00:33:47;6.72;;;2.80;;
30173;SDS011;16985;50.814;8.530;2022-10-16T00:36:16;8.27;;;3.25;;
30173;SDS011;16985;50.814;8.530;2022-10-16T00:38:46;5.38;;;3.47;;
30173;SDS011;16985;50.814;8.530;2022-10-16T00:41:16;4.70;;;2.90;;
30173;SDS011;16985;50.814;8.530;2022-10-16T00:43:46;6.88;;;3.80;;
30173;SDS011;16985;50.814;8.530;2022-10-16T00:49:09;7.75;;;4.28;;
30173;SDS011;16985;50.814;8.530;2022-10-16T00:51:42;8.45;;;3.70;;
30173;SDS011;16985;50.814;8.530;2022-10-16T00:54:15;9.38;;;3.45;;
30173;SDS011;16985;50.814;8.530;2022-10-16T00:56:46;6.20;;;3.50;;
30173;SDS011;16985;50.814;8.530;2022-10-16T00:59:18;5.18;;;2.83;;
30173;SDS011;16985;50.814;8.530;2022-10-16T01:01:50;9.50;;;4.10;;
30173;SDS011;16985;50.814;8.530;2022-10-16T01:04:17;8.15;;;2.85;;
30173;SDS011;16985;50.814;8.530;2022-10-16T01:09:39;3.97;;;3.10;;
30173;SDS011;16985;50.814;8.530;2022-10-16T01:15:08;6.60;;;2.53;;
30173;SDS011;16985;50.814;8.530;2022-10-16T01:21:10;3.00;;;2.30;;
30173;SDS011;16985;50.814;8.530;2022-10-16T01:32:09;9.32;;;2.55;;
30173;SDS011;16985;50.814;8.530;2022-10-16T01:35:18;3.47;;;2.03;;
30173;SDS011;16985;50.814;8.530;2022-10-16T01:37:54;3.55;;;1.90;;
30173;SDS011;16985;50.814;8.530;2022-10-16T01:40:44;3.88;;;2.85;;
30173;SDS011;16985;50.814;8.530;2022-10-16T01:43:22;2.30;;;2.10;;
30173;SDS011;16985;50.814;8.530;2022-10-16T01:45:54;5.70;;;2.42;;
30173;SDS011;16985;50.814;8.530;2022-10-16T01:48:22;5.43;;;2.05;;
30173;SDS011;16985;50.814;8.530;2022-10-16T01:50:57;1.95;;;1.75;;
30173;SDS011;16985;50.814;8.530;2022-10-16T01:53:41;4.32;;;2.08;;
30173;SDS011;16985;50.814;8.530;2022-10-16T01:56:16;3.00;;;1.83;;
30173;SDS011;16985;50.814;8.530;2022-10-16T01:58:48;4.85;;;2.38;;
30173;SDS011;16985;50.814;8.530;2022-10-16T02:01:37;2.35;;;2.15;;
30173;SDS011;16985;50.814;8.530;2022-10-16T02:07:05;6.88;;;1.80;;
30173;SDS011;16985;50.814;8.530;2022-10-16T02:09:33;3.13;;;2.00;;
30173;SDS011;16985;50.814;8.530;2022-10-16T02:12:00;5.10;;;2.00;;
30173;SDS011;16985;50.814;8.530;2022-10-16T02:14:58;2.60;;;2.40;;
30173;SDS011;16985;50.814;8.530;2022-10-16T02:17:29;2.83;;;2.30;;
30173;SDS011;16985;50.814;8.530;2022-10-16T02:19:55;3.15;;;2.20;;
30173;SDS011;16985;50.814;8.530;2022-10-16T02:22:43;3.08;;;2.03;;
30173;SDS011;16985;50.814;8.530;2022-10-16T02:25:22;2.08;;;1.90;;
30173;SDS011;16985;50.814;8.530;2022-10-16T02:28:03;3.17;;;2.33;;
30173;SDS011;16985;50.814;8.530;2022-10-16T02:31:04;2.80;;;2.30;;
30173;SDS011;16985;50.814;8.530;2022-10-16T02:33:34;2.25;;;1.88;;
30173;SDS011;16985;50.814;8.530;2022-10-16T02:36:02;2.45;;;2.25;;
30173;SDS011;16985;50.814;8.530;2022-10-16T02:38:30;4.00;;;2.63;;
30173;SDS011;16985;50.814;8.530;2022-10-16T02:40:56;4.80;;;2.53;;
30173;SDS011;16985;50.814;8.530;2022-10-16T02:43:22;2.55;;;2.30;;
30173;SDS011;16985;50.814;8.530;2022-10-16T02:45:51;2.38;;;2.17;;
30173;SDS011;16985;50.814;8.530;2022-10-16T02:48:19;3.53;;;2.25;;
30173;SDS011;16985;50.814;8.530;2022-10-16T02:50:46;3.67;;;2.58;;
30173;SDS011;16985;50.814;8.530;2022-10-16T02:53:12;3.47;;;2.67;;
30173;SDS011;16985;50.814;8.530;2022-10-16T02:55:38;2.60;;;2.40;;
30173;SDS011;16985;50.814;8.530;2022-10-16T02:58:04;2.92;;;2.33;;
30173;SDS011;16985;50.814;8.530;2022-10-16T03:00:29;3.42;;;2.58;;
30173;SDS011;16985;50.814;8.530;2022-10-16T03:02:55;2.70;;;2.40;;
30173;SDS011;16985;50.814;8.530;2022-10-16T03:05:26;2.78;;;2.50;;
30173;SDS011;16985;50.814;8.530;2022-10-16T03:07:51;2.63;;;2.10;;
30173;SDS011;16985;50.814;8.530;2022-10-16T03:10:17;6.57;;;2.38;;
30173;SDS011;16985;50.814;8.530;2022-10-16T03:12:43;1.95;;;1.75;;
30173;SDS011;16985;50.814;8.530;2022-10-16T03:15:09;5.13;;;2.42;;
30173;SDS011;16985;50.814;8.530;2022-10-16T03:17:35;3.10;;;2.30;;
30173;SDS011;16985;50.814;8.530;2022-10-16T03:20:06;6.60;;;3.55;;
30173;SDS011;16985;50.814;8.530;2022-10-16T03:22:32;3.83;;;2.25;;
30173;SDS011;16985;50.814;8.530;2022-10-16T03:24:58;4.82;;;2.47;;
30173;SDS011;16985;50.814;8.530;2022-10-16T03:27:24;4.05;;;2.33;;
30173;SDS011;16985;50.814;8.530;2022-10-16T03:29:50;2.15;;;1.95;;
30173;SDS011;16985;50.814;8.530;2022-10-16T03:32:16;4.60;;;2.53;;
30173;SDS011;16985;50.814;8.530;2022-10-16T03:34:45;5.18;;;2.20;;
30173;SDS011;16985;50.814;8.530;2022-10-16T03:37:11;3.58;;;2.10;;
30173;SDS011;16985;50.814;8.530;2022-10-16T03:39:37;4.18;;;2.03;;
30173;SDS011;16985;50.814;8.530;2022-10-16T03:42:03;3.92;;;2.55;;
30173;SDS011;16985;50.814;8.530;2022-10-16T03:44:28;2.45;;;2.03;;
30173;SDS011;16985;50.814;8.530;2022-10-16T03:46:57;5.55;;;2.22;;
30173;SDS011;16985;50.814;8.530;2022-10-16T03:49:25;3.15;;;2.15;;
30173;SDS011;16985;50.814;8.530;2022-10-16T03:51:54;4.60;;;2.05;;
30173;SDS011;16985;50.814;8.530;2022-10-16T03:54:20;5.55;;;2.47;;
30173;SDS011;16985;50.814;8.530;2022-10-16T03:56:47;5.50;;;1.85;;
30173;SDS011;16985;50.814;8.530;2022-10-16T03:59:14;3.05;;;2.30;;
30173;SDS011;16985;50.814;8.530;2022-10-16T04:01:42;5.18;;;2.22;;
30173;SDS011;16985;50.814;8.530;2022-10-16T04:04:08;3.05;;;2.13;;
30173;SDS011;16985;50.814;8.530;2022-10-16T04:06:34;3.25;;;2.05;;
30173;SDS011;16985;50.814;8.530;2022-10-16T04:09:03;3.70;;;2.08;;
30173;SDS011;16985;50.814;8.530;2022-10-16T04:11:28;6.07;;;2.10;;
30173;SDS011;16985;50.814;8.530;2022-10-16T04:13:56;3.35;;;2.30;;
30173;SDS011;16985;50.814;8.530;2022-10-16T04:16:22;2.53;;;1.85;;
30173;SDS011;16985;50.814;8.530;2022-10-16T04:18:49;5.95;;;2.00;;
30173;SDS011;16985;50.814;8.530;2022-10-16T04:21:14;3.35;;;1.88;;
30173;SDS011;16985;50.814;8.530;2022-10-16T04:23:41;3.70;;;2.15;;
30173;SDS011;16985;50.814;8.530;2022-10-16T04:26:10;4.50;;;2.25;;
30173;SDS011;16985;50.814;8.530;2022-10-16T04:28:37;2.40;;;1.98;;
30173;SDS011;16985;50.814;8.530;2022-10-16T04:31:03;8.95;;;3.40;;
30173;SDS011;16985;50.814;8.530;2022-10-16T04:33:30;4.97;;;1.80;;
30173;SDS011;16985;50.814;8.530;2022-10-16T04:35:57;2.20;;;2.00;;
30173;SDS011;16985;50.814;8.530;2022-10-16T04:38:24;10.82;;;2.50;;
30173;SDS011;16985;50.814;8.530;2022-10-16T04:40:50;3.25;;;2.45;;
30173;SDS011;16985;50.814;8.530;2022-10-16T04:45:45;7.25;;;2.00;;
30173;SDS011;16985;50.814;8.530;2022-10-16T04:48:11;2.78;;;2.40;;
30173;SDS011;16985;50.814;8.530;2022-10-16T04:50:37;4.20;;;2.83;;
30173;SDS011;16985;50.814;8.530;2022-10-16T04:53:06;2.45;;;1.95;;
30173;SDS011;16985;50.814;8.530;2022-10-16T04:55:33;2.20;;;2.00;;
30173;SDS011;16985;50.814;8.530;2022-10-16T04:57:59;2.20;;;1.80;;
30173;SDS011;16985;50.814;8.530;2022-10-16T05:00:25;2.55;;;2.08;;
30173;SDS011;16985;50.814;8.530;2022-10-16T05:02:51;4.60;;;1.77;;
30173;SDS011;16985;50.814;8.530;2022-10-16T05:05:17;3.03;;;1.65;;
30173;SDS011;16985;50.814;8.530;2022-10-16T05:07:45;2.90;;;1.83;;
30173;SDS011;16985;50.814;8.530;2022-10-16T05:10:12;2.33;;;1.60;;
30173;SDS011;16985;50.814;8.530;2022-10-16T05:12:39;2.10;;;1.77;;
30173;SDS011;16985;50.814;8.530;2022-10-16T05:15:05;3.33;;;1.45;;
30173;SDS011;16985;50.814;8.530;2022-10-16T05:17:31;2.72;;;1.23;;
30173;SDS011;16985;50.814;8.530;2022-10-16T05:19:57;3.40;;;1.52;;
30173;SDS011;16985;50.814;8.530;2022-10-16T05:22:23;1.63;;;1.42;;
30173;SDS011;16985;50.814;8.530;2022-10-16T05:24:48;1.60;;;1.50;;
30173;SDS011;16985;50.814;8.530;2022-10-16T05:27:15;5.03;;;1.30;;
30173;SDS011;16985;50.814;8.530;2022-10-16T05:29:46;4.47;;;1.60;;
30173;SDS011;16985;50.814;8.530;2022-10-16T05:32:16;5.93;;;1.97;;
30173;SDS011;16985;50.814;8.530;2022-10-16T05:34:43;1.92;;;1.10;;
30173;SDS011;16985;50.814;8.530;2022-10-16T05:39:37;7.25;;;1.48;;
30173;SDS011;16985;50.814;8.530;2022-10-16T05:42:04;4.00;;;2.22;;
30173;SDS011;16985;50.814;8.530;2022-10-16T05:44:31;5.15;;;1.00;;
30173;SDS011;16985;50.814;8.530;2022-10-16T05:46:56;1.35;;;1.25;;
30173;SDS011;16985;50.814;8.530;2022-10-16T05:49:26;2.08;;;1.25;;
30173;SDS011;16985;50.814;8.530;2022-10-16T05:51:52;1.55;;;0.90;;
30173;SDS011;16985;50.814;8.530;2022-10-16T05:54:18;3.13;;;1.10;;
30173;SDS011;16985;50.814;8.530;2022-10-16T05:56:44;2.63;;;1.20;;
30173;SDS011;16985;50.814;8.530;2022-10-16T05:59:09;2.63;;;1.17;;
30173;SDS011;16985;50.814;8.530;2022-10-16T06:01:35;2.50;;;1.02;;
30173;SDS011;16985;50.814;8.530;2022-10-16T06:04:01;0.68;;;0.68;;
30173;SDS011;16985;50.814;8.530;2022-10-16T06:06:27;1.52;;;1.10;;
30173;SDS011;16985;50.814;8.530;2022-10-16T06:08:56;3.65;;;0.95;;
30173;SDS011;16985;50.814;8.530;2022-10-16T06:11:24;1.92;;;1.00;;
30173;SDS011;16985;50.814;8.530;2022-10-16T06:13:53;0.90;;;0.90;;
30173;SDS011;16985;50.814;8.530;2022-10-16T06:16:24;1.80;;;1.40;;
30173;SDS011;16985;50.814;8.530;2022-10-16T06:18:51;1.20;;;1.10;;
30173;SDS011;16985;50.814;8.530;2022-10-16T06:21:18;1.50;;;1.10;;
30173;SDS011;16985;50.814;8.530;2022-10-16T06:23:47;7.25;;;1.40;;
30173;SDS011;16985;50.814;8.530;2022-10-16T06:26:17;3.33;;;1.40;;
30173;SDS011;16985;50.814;8.530;2022-10-16T06:28:45;5.55;;;1.60;;
30173;SDS011;16985;50.814;8.530;2022-10-16T06:31:13;1.55;;;1.35;;
30173;SDS011;16985;50.814;8.530;2022-10-16T06:33:39;8.30;;;2.25;;
30173;SDS011;16985;50.814;8.530;2022-10-16T06:36:06;2.78;;;1.38;;
30173;SDS011;16985;50.814;8.530;2022-10-16T06:38:38;2.42;;;1.40;;
30173;SDS011;16985;50.814;8.530;2022-10-16T06:41:05;3.17;;;1.63;;
30173;SDS011;16985;50.814;8.530;2022-10-16T06:43:36;5.13;;;1.48;;
30173;SDS011;16985;50.814;8.530;2022-10-16T06:46:03;1.70;;;1.08;;
30173;SDS011;16985;50.814;8.530;2022-10-16T06:48:33;1.35;;;1.15;;
30173;SDS011;16985;50.814;8.530;2022-10-16T06:51:00;5.07;;;1.60;;
30173;SDS011;16985;50.814;8.530;2022-10-16T06:53:33;1.05;;;0.95;;
30173;SDS011;16985;50.814;8.530;2022-10-16T06:59:00;1.70;;;1.00;;
30173;SDS011;16985;50.814;8.530;2022-10-16T07:01:28;1.80;;;1.10;;
30173;SDS011;16985;50.814;8.530;2022-10-16T07:03:54;3.95;;;0.90;;
30173;SDS011;16985;50.814;8.530;2022-10-16T07:06:21;0.82;;;0.82;;
30173;SDS011;16985;50.814;8.530;2022-10-16T07:08:49;0.93;;;0.93;;
30173;SDS011;16985;50.814;8.530;2022-10-16T07:11:18;1.20;;;1.02;;
30173;SDS011;16985;50.814;8.530;2022-10-16T07:13:48;3.80;;;1.17;;
30173;SDS011;16985;50.814;8.530;2022-10-16T07:16:16;3.17;;;1.13;;
30173;SDS011;16985;50.814;8.530;2022-10-16T07:18:47;1.75;;;1.00;;
30173;SDS011;16985;50.814;8.530;2022-10-16T07:21:18;0.90;;;0.77;;
30173;SDS011;16985;50.814;8.530;2022-10-16T07:23:45;7.80;;;1.20;;
30173;SDS011;16985;50.814;8.530;2022-10-16T07:26:23;1.65;;;1.00;;
30173;SDS011;16985;50.814;8.530;2022-10-16T07:28:49;2.28;;;1.00;;
30173;SDS011;16985;50.814;8.530;2022-10-16T07:31:16;2.97;;;0.90;;
30173;SDS011;16985;50.814;8.530;2022-10-16T07:33:45;2.88;;;0.70;;
30173;SDS011;16985;50.814;8.530;2022-10-16T07:36:12;0.70;;;0.70;;
30173;SDS011;16985;50.814;8.530;2022-10-16T07:38:40;0.98;;;0.90;;
30173;SDS011;16985;50.814;8.530;2022-10-16T07:41:08;0.80;;;0.80;;
30173;SDS011;16985;50.814;8.530;2022-10-16T07:43:38;1.67;;;1.23;;
30173;SDS011;16985;50.814;8.530;2022-10-16T07:46:04;1.52;;;1.08;;
30173;SDS011;16985;50.814;8.530;2022-10-16T07:48:31;1.40;;;0.85;;
30173;SDS011;16985;50.814;8.530;2022-10-16T07:50:59;3.90;;;1.33;;
30173;SDS011;16985;50.814;8.530;2022-10-16T07:53:29;2.05;;;0.88;;
30173;SDS011;16985;50.814;8.530;2022-10-16T07:55:56;0.75;;;0.75;;
30173;SDS011;16985;50.814;8.530;2022-10-16T07:58:24;1.10;;;0.85;;
30173;SDS011;16985;50.814;8.530;2022-10-16T08:00:51;1.08;;;0.98;;
30173;SDS011;16985;50.814;8.530;2022-10-16T08:03:20;2.65;;;1.10;;
30173;SDS011;16985;50.814;8.530;2022-10-16T08:05:46;0.88;;;0.80;;
30173;SDS011;16985;50.814;8.530;2022-10-16T08:08:13;2.13;;;0.80;;
30173;SDS011;16985;50.814;8.530;2022-10-16T08:10:40;3.47;;;1.67;;
30173;SDS011;16985;50.814;8.530;2022-10-16T08:13:06;1.10;;;0.88;;
30173;SDS011;16985;50.814;8.530;2022-10-16T08:15:34;1.20;;;1.00;;
30173;SDS011;16985;50.814;8.530;2022-10-16T08:18:01;1.02;;;0.93;;
30173;SDS011;16985;50.814;8.530;2022-10-16T08:20:30;1.67;;;0.88;;
30173;SDS011;16985;50.814;8.530;2022-10-16T08:22:58;10.45;;;2.03;;
30173;SDS011;16985;50.814;8.530;2022-10-16T08:25:27;2.20;;;0.77;;
30173;SDS011;16985;50.814;8.530;2022-10-16T08:27:53;1.95;;;0.90;;
30173;SDS011;16985;50.814;8.530;2022-10-16T08:30:21;3.42;;;1.00;;
30173;SDS011;16985;50.814;8.530;2022-10-16T08:32:48;2.78;;;0.70;;
30173;SDS011;16985;50.814;8.530;2022-10-16T08:35:14;3.42;;;0.90;;
30173;SDS011;16985;50.814;8.530;2022-10-16T08:37:41;0.98;;;0.70;;
30173;SDS011;16985;50.814;8.530;2022-10-16T08:40:16;0.98;;;0.80;;
30173;SDS011;16985;50.814;8.530;2022-10-16T08:45:49;6.38;;;1.10;;
30173;SDS011;16985;50.814;8.530;2022-10-16T08:48:56;3.17;;;0.80;;
30173;SDS011;16985;50.814;8.530;2022-10-16T08:53:55;2.63;;;1.35;;
30173;SDS011;16985;50.814;8.530;2022-10-16T08:56:40;0.90;;;0.88;;
30173;SDS011;16985;50.814;8.530;2022-10-16T08:59:06;4.65;;;1.00;;
30173;SDS011;16985;50.814;8.530;2022-10-16T09:01:45;2.58;;;1.15;;
30173;SDS011;16985;50.814;8.530;2022-10-16T09:04:37;0.85;;;0.80;;
30173;SDS011;16985;50.814;8.530;2022-10-16T09:07:27;4.50;;;1.25;;
30173;SDS011;16985;50.814;8.530;2022-10-16T09:13:00;2.65;;;0.73;;
30173;SDS011;16985;50.814;8.530;2022-10-16T09:21:14;3.28;;;1.10;;
30173;SDS011;16985;50.814;8.530;2022-10-16T09:24:18;1.45;;;1.13;;
30173;SDS011;16985;50.814;8.530;2022-10-16T09:26:47;1.33;;;0.90;;
30173;SDS011;16985;50.814;8.530;2022-10-16T09:29:14;1.33;;;0.95;;
30173;SDS011;16985;50.814;8.530;2022-10-16T09:31:45;3.30;;;1.05;;
30173;SDS011;16985;50.814;8.530;2022-10-16T09:37:00;2.45;;;1.00;;
30173;SDS011;16985;50.814;8.530;2022-10-16T09:39:47;0.80;;;0.80;;
30173;SDS011;16985;50.814;8.530;2022-10-16T09:42:28;5.38;;;1.52;;
30173;SDS011;16985;50.814;8.530;2022-10-16T09:44:58;1.20;;;1.00;;
30173;SDS011;16985;50.814;8.530;2022-10-16T09:47:25;1.42;;;0.93;;
30173;SDS011;16985;50.814;8.530;2022-10-16T09:49:59;0.70;;;0.70;;
30173;SDS011;16985;50.814;8.530;2022-10-16T09:54:58;1.92;;;0.90;;
30173;SDS011;16985;50.814;8.530;2022-10-16T09:57:48;4.43;;;0.80;;
30173;SDS011;16985;50.814;8.530;2022-10-16T10:00:18;2.67;;;0.68;;
30173;SDS011;16985;50.814;8.530;2022-10-16T10:02:47;0.77;;;0.77;;
30173;SDS011;16985;50.814;8.530;2022-10-16T10:05:18;1.20;;;0.73;;
30173;SDS011;16985;50.814;8.530;2022-10-16T10:07:52;2.72;;;1.00;;
30173;SDS011;16985;50.814;8.530;2022-10-16T10:10:26;1.05;;;0.70;;
30173;SDS011;16985;50.814;8.530;2022-10-16T10:12:56;3.97;;;1.00;;
30173;SDS011;16985;50.814;8.530;2022-10-16T10:15:23;5.25;;;1.33;;
30173;SDS011;16985;50.814;8.530;2022-10-16T10:17:52;4.07;;;2.65;;
30173;SDS011;16985;50.814;8.530;2022-10-16T10:20:31;2.70;;;1.63;;
30173;SDS011;16985;50.814;8.530;2022-10-16T10:23:20;2.90;;;0.85;;
30173;SDS011;16985;50.814;8.530;2022-10-16T10:26:34;0.80;;;0.70;;
30173;SDS011;16985;50.814;8.530;2022-10-16T10:31:49;0.70;;;0.70;;
30173;SDS011;16985;50.814;8.530;2022-10-16T10:40:30;1.98;;;0.80;;
30173;SDS011;16985;50.814;8.530;2022-10-16T10:46:14;1.00;;;0.70;;
30173;SDS011;16985;50.814;8.530;2022-10-16T10:49:28;1.38;;;0.70;;
30173;SDS011;16985;50.814;8.530;2022-10-16T10:52:36;3.92;;;0.85;;
30173;SDS011;16985;50.814;8.530;2022-10-16T10:58:29;3.70;;;0.88;;
30173;SDS011;16985;50.814;8.530;2022-10-16T11:01:33;0.68;;;0.60;;
30173;SDS011;16985;50.814;8.530;2022-10-16T11:10:24;7.43;;;1.13;;
30173;SDS011;16985;50.814;8.530;2022-10-16T11:13:08;53.70;;;6.70;;
30173;SDS011;16985;50.814;8.530;2022-10-16T11:16:16;13.60;;;1.83;;
30173;SDS011;16985;50.814;8.530;2022-10-16T11:18:58;10.48;;;1.25;;
30173;SDS011;16985;50.814;8.530;2022-10-16T11:24:40;4.47;;;0.70;;
30173;SDS011;16985;50.814;8.530;2022-10-16T11:28:42;2.15;;;0.85;;
30173;SDS011;16985;50.814;8.530;2022-10-16T11:31:15;3.17;;;0.90;;
30173;SDS011;16985;50.814;8.530;2022-10-16T11:36:51;0.60;;;0.40;;
30173;SDS011;16985;50.814;8.530;2022-10-16T11:39:29;0.85;;;0.50;;
30173;SDS011;16985;50.814;8.530;2022-10-16T11:44:44;1.80;;;0.50;;
30173;SDS011;16985;50.814;8.530;2022-10-16T11:47:39;6.35;;;1.00;;
30173;SDS011;16985;50.814;8.530;2022-10-16T11:53:51;1.65;;;0.50;;
30173;SDS011;16985;50.814;8.530;2022-10-16T11:56:07;1.42;;;0.60;;
30173;SDS011;16985;50.814;8.530;2022-10-16T12:01:44;2.38;;;0.50;;
30173;SDS011;16985;50.814;8.530;2022-10-16T12:04:23;1.50;;;0.65;;
30173;SDS011;16985;50.814;8.530;2022-10-16T12:07:03;1.58;;;0.90;;
30173;SDS011;16985;50.814;8.530;2022-10-16T12:09:36;1.13;;;0.57;;
30173;SDS011;16985;50.814;8.530;2022-10-16T12:12:23;1.85;;;0.40;;
30173;SDS011;16985;50.814;8.530;2022-10-16T12:15:18;2.17;;;1.08;;
30173;SDS011;16985;50.814;8.530;2022-10-16T12:17:58;0.60;;;0.50;;
30173;SDS011;16985;50.814;8.530;2022-10-16T12:23:00;0.47;;;0.40;;
30173;SDS011;16985;50.814;8.530;2022-10-16T12:25:30;1.27;;;0.40;;
30173;SDS011;16985;50.814;8.530;2022-10-16T12:28:21;1.05;;;0.40;;
30173;SDS011;16985;50.814;8.530;2022-10-16T12:33:26;1.75;;;0.50;;
30173;SDS011;16985;50.814;8.530;2022-10-16T12:35:54;1.23;;;0.63;;
30173;SDS011;16985;50.814;8.530;2022-10-16T12:41:23;1.30;;;0.50;;
30173;SDS011;16985;50.814;8.530;2022-10-16T12:43:55;2.53;;;0.60;;
30173;SDS011;16985;50.814;8.530;2022-10-16T12:46:23;2.67;;;0.77;;
30173;SDS011;16985;50.814;8.530;2022-10-16T12:51:52;0.40;;;0.32;;
30173;SDS011;16985;50.814;8.530;2022-10-16T12:54:25;0.40;;;0.40;;
30173;SDS011;16985;50.814;8.530;2022-10-16T12:57:08;0.65;;;0.40;;
30173;SDS011;16985;50.814;8.530;2022-10-16T12:59:55;0.95;;;0.40;;
30173;SDS011;16985;50.814;8.530;2022-10-16T13:05:35;1.65;;;1.05;;
30173;SDS011;16985;50.814;8.530;2022-10-16T13:17:37;2.38;;;1.40;;
30173;SDS011;16985;50.814;8.530;2022-10-16T13:23:47;3.63;;;1.17;;
30173;SDS011;16985;50.814;8.530;2022-10-16T13:29:23;1.42;;;1.00;;
30173;SDS011;16985;50.814;8.530;2022-10-16T13:31:55;1.00;;;0.90;;
30173;SDS011;16985;50.814;8.530;2022-10-16T13:34:23;1.67;;;0.60;;
30173;SDS011;16985;50.814;8.530;2022-10-16T13:36:50;0.68;;;0.47;;
30173;SDS011;16985;50.814;8.530;2022-10-16T13:39:28;2.38;;;0.63;;
30173;SDS011;16985;50.814;8.530;2022-10-16T13:44:48;1.17;;;0.57;;
30173;SDS011;16985;50.814;8.530;2022-10-16T13:47:22;1.02;;;0.60;;
30173;SDS011;16985;50.814;8.530;2022-10-16T13:50:04;1.63;;;1.02;;
30173;SDS011;16985;50.814;8.530;2022-10-16T13:52:38;1.08;;;0.60;;
30173;SDS011;16985;50.814;8.530;2022-10-16T13:55:13;1.67;;;0.80;;
30173;SDS011;16985;50.814;8.530;2022-10-16T13:57:41;4.32;;;0.80;;
30173;SDS011;16985;50.814;8.530;2022-10-16T14:00:21;1.08;;;0.68;;
30173;SDS011;16985;50.814;8.530;2022-10-16T14:03:05;1.48;;;0.60;;
30173;SDS011;16985;50.814;8.530;2022-10-16T14:05:43;0.88;;;0.60;;
30173;SDS011;16985;50.814;8.530;2022-10-16T14:08:18;0.85;;;0.70;;
30173;SDS011;16985;50.814;8.530;2022-10-16T14:10:47;1.42;;;0.80;;
30173;SDS011;16985;50.814;8.530;2022-10-16T14:13:20;5.80;;;1.13;;
30173;SDS011;16985;50.814;8.530;2022-10-16T14:15:53;1.83;;;0.52;;
30173;SDS011;16985;50.814;8.530;2022-10-16T14:18:21;0.55;;;0.55;;
30173;SDS011;16985;50.814;8.530;2022-10-16T14:20:49;0.30;;;0.30;;
30173;SDS011;16985;50.814;8.530;2022-10-16T14:23:29;0.95;;;0.50;;
30173;SDS011;16985;50.814;8.530;2022-10-16T14:26:06;1.63;;;0.60;;
30173;SDS011;16985;50.814;8.530;2022-10-16T14:28:35;2.55;;;0.68;;
30173;SDS011;16985;50.814;8.530;2022-10-16T14:31:14;2.28;;;0.90;;
30173;SDS011;16985;50.814;8.530;2022-10-16T14:33:51;0.70;;;0.60;;
30173;SDS011;16985;50.814;8.530;2022-10-16T14:36:17;0.50;;;0.45;;
30173;SDS011;16985;50.814;8.530;2022-10-16T14:38:49;0.50;;;0.50;;
30173;SDS011;16985;50.814;8.530;2022-10-16T14:41:25;3.47;;;0.80;;
30173;SDS011;16985;50.814;8.530;2022-10-16T14:43:53;1.23;;;0.88;;
30173;SDS011;16985;50.814;8.530;2022-10-16T14:46:22;0.93;;;0.60;;
30173;SDS011;16985;50.814;8.530;2022-10-16T14:49:31;1.90;;;0.40;;
30173;SDS011;16985;50.814;8.530;2022-10-16T14:51:50;3.58;;;0.50;;
30173;SDS011;16985;50.814;8.530;2022-10-16T14:54:18;0.70;;;0.50;;
30173;SDS011;16985;50.814;8.530;2022-10-16T14:56:51;1.80;;;0.70;;
30173;SDS011;16985;50.814;8.530;2022-10-16T14:59:38;2.55;;;0.50;;
30173;SDS011;16985;50.814;8.530;2022-10-16T15:02:15;1.70;;;0.40;;
30173;SDS011;16985;50.814;8.530;2022-10-16T15:04:46;1.00;;;0.60;;
30173;SDS011;16985;50.814;8.530;2022-10-16T15:07:12;3.70;;;1.70;;
30173;SDS011;16985;50.814;8.530;2022-10-16T15:09:38;0.60;;;0.60;;
30173;SDS011;16985;50.814;8.530;2022-10-16T15:12:04;3.22;;;0.40;;
30173;SDS011;16985;50.814;8.530;2022-10-16T15:14:30;1.10;;;0.70;;
30173;SDS011;16985;50.814;8.530;2022-10-16T15:16:56;1.48;;;0.40;;
30173;SDS011;16985;50.814;8.530;2022-10-16T15:19:22;0.40;;;0.40;;
30173;SDS011;16985;50.814;8.530;2022-10-16T15:21:48;0.80;;;0.50;;
30173;SDS011;16985;50.814;8.530;2022-10-16T15:24:14;3.40;;;0.80;;
30173;SDS011;16985;50.814;8.530;2022-10-16T15:26:40;1.77;;;0.88;;
30173;SDS011;16985;50.814;8.530;2022-10-16T15:29:06;3.30;;;0.85;;
30173;SDS011;16985;50.814;8.530;2022-10-16T15:31:33;1.77;;;0.50;;
30173;SDS011;16985;50.814;8.530;2022-10-16T15:33:59;4.60;;;0.70;;
30173;SDS011;16985;50.814;8.530;2022-10-16T15:36:33;0.50;;;0.47;;
30173;SDS011;16985;50.814;8.530;2022-10-16T15:39:05;1.17;;;0.60;;
30173;SDS011;16985;50.814;8.530;2022-10-16T15:41:43;2.95;;;0.70;;
30173;SDS011;16985;50.814;8.530;2022-10-16T15:44:15;3.05;;;0.68;;
30173;SDS011;16985;50.814;8.530;2022-10-16T15:46:44;1.92;;;0.80;;
30173;SDS011;16985;50.814;8.530;2022-10-16T15:49:10;3.38;;;1.35;;
30173;SDS011;16985;50.814;8.530;2022-10-16T15:51:41;1.55;;;0.80;;
30173;SDS011;16985;50.814;8.530;2022-10-16T15:54:10;1.92;;;1.33;;
30173;SDS011;16985;50.814;8.530;2022-10-16T15:56:36;2.30;;;0.80;;
30173;SDS011;16985;50.814;8.530;2022-10-16T16:01:32;3.13;;;1.02;;
30173;SDS011;16985;50.814;8.530;2022-10-16T16:03:59;4.05;;;1.00;;
30173;SDS011;16985;50.814;8.530;2022-10-16T16:06:25;3.03;;;0.90;;
30173;SDS011;16985;50.814;8.530;2022-10-16T16:08:51;1.35;;;0.80;;
30173;SDS011;16985;50.814;8.530;2022-10-16T16:11:18;2.05;;;1.00;;
30173;SDS011;16985;50.814;8.530;2022-10-16T16:13:44;8.02;;;1.02;;
30173;SDS011;16985;50.814;8.530;2022-10-16T16:16:11;3.60;;;1.30;;
30173;SDS011;16985;50.814;8.530;2022-10-16T16:18:40;9.90;;;1.48;;
30173;SDS011;16985;50.814;8.530;2022-10-16T16:21:07;9.05;;;2.05;;
30173;SDS011;16985;50.814;8.530;2022-10-16T16:23:35;2.58;;;2.00;;
30173;SDS011;16985;50.814;8.530;2022-10-16T16:28:37;3.63;;;2.25;;
30173;SDS011;16985;50.814;8.530;2022-10-16T16:31:04;9.70;;;3.17;;
30173;SDS011;16985;50.814;8.530;2022-10-16T16:33:30;6.35;;;3.63;;
30173;SDS011;16985;50.814;8.530;2022-10-16T16:35:57;8.23;;;3.50;;
30173;SDS011;16985;50.814;8.530;2022-10-16T16:38:24;6.82;;;2.88;;
30173;SDS011;16985;50.814;8.530;2022-10-16T16:40:51;9.75;;;5.25;;
30173;SDS011;16985;50.814;8.530;2022-10-16T16:43:17;9.93;;;5.80;;
30173;SDS011;16985;50.814;8.530;2022-10-16T16:45:43;17.73;;;5.28;;
30173;SDS011;16985;50.814;8.530;2022-10-16T16:48:09;8.30;;;4.90;;
30173;SDS011;16985;50.814;8.530;2022-10-16T16:50:38;12.45;;;5.20;;
30173;SDS011;16985;50.814;8.530;2022-10-16T16:53:04;9.68;;;4.75;;
30173;SDS011;16985;50.814;8.530;2022-10-16T16:55:30;11.23;;;5.35;;
30173;SDS011;16985;50.814;8.530;2022-10-16T16:57:55;15.32;;;6.63;;
30173;SDS011;16985;50.814;8.530;2022-10-16T17:00:24;10.68;;;5.28;;
30173;SDS011;16985;50.814;8.530;2022-10-16T17:02:50;13.10;;;5.30;;
30173;SDS011;16985;50.814;8.530;2022-10-16T17:05:17;6.25;;;4.38;;
30173;SDS011;16985;50.814;8.530;2022-10-16T17:07:43;12.27;;;4.40;;
30173;SDS011;16985;50.814;8.530;2022-10-16T17:10:09;9.65;;;4.30;;
30173;SDS011;16985;50.814;8.530;2022-10-16T17:12:35;10.50;;;4.80;;
30173;SDS011;16985;50.814;8.530;2022-10-16T17:15:01;9.73;;;4.40;;
30173;SDS011;16985;50.814;8.530;2022-10-16T17:17:27;10.38;;;5.13;;
30173;SDS011;16985;50.814;8.530;2022-10-16T17:19:52;11.10;;;5.53;;